Time;durP1;ratioP1;P1;durP2;ratioP2;P2;SDS_P1;SDS_P2;PMS_P1;PMS_P2;Temp;Humidity;BMP_temperature;BMP_pressure;BME280_temperature;BME280_humidity;BME280_pressure;Samples;Min_cycle;Max_cycle;Signal;HPM_P1;HPM_P2
2023/11/28 00:01:18;;;;;;;6.72;1.20;;;21.30;39.30;;;;;;4995796;28;20572;-66
2023/11/28 00:03:46;;;;;;;6.30;1.58;;;21.30;39.70;;;;;;4998552;28;20123;-67
2023/11/28 00:06:17;;;;;;;10.75;1.83;;;21.20;39.70;;;;;;4998674;28;20037;-67
2023/11/28 00:08:44;;;;;;;2.28;1.13;;;21.10;39.80;;;;;;4997477;28;20048;-66
2023/11/28 00:11:15;;;;;;;8.10;1.52;;;21.10;40.00;;;;;;4998839;28;20049;-65
2023/11/28 00:13:42;;;;;;;84.25;59.13;;;21.00;40.40;;;;;;4993093;28;20518;-64
2023/11/28 00:16:08;;;;;;;11.65;8.63;;;20.90;40.30;;;;;;4993672;28;20132;-65
2023/11/28 00:18:35;;;;;;;9.80;3.60;;;20.90;40.30;;;;;;4993928;28;20067;-63
2023/11/28 00:21:01;;;;;;;15.35;2.78;;;20.80;40.20;;;;;;4993642;28;20544;-65
2023/11/28 00:23:28;;;;;;;8.05;1.73;;;20.70;40.40;;;;;;4996660;28;20055;-66
2023/11/28 00:25:54;;;;;;;7.65;1.60;;;20.70;41.10;;;;;;4995647;28;20153;-64
2023/11/28 00:28:21;;;;;;;9.05;1.77;;;20.60;41.30;;;;;;4999040;28;20050;-63
2023/11/28 00:30:48;;;;;;;18.10;2.45;;;20.60;41.60;;;;;;4996406;28;20128;-60
2023/11/28 00:33:14;;;;;;;18.30;2.67;;;20.50;42.10;;;;;;4994917;28;20135;-61
2023/11/28 00:35:44;;;;;;;10.65;1.92;;;20.40;42.70;;;;;;4997750;28;20508;-61
2023/11/28 00:38:10;;;;;;;14.07;2.45;;;20.40;42.70;;;;;;4998899;28;20051;-66
2023/11/28 00:40:37;;;;;;;9.52;2.05;;;20.30;42.90;;;;;;4996885;28;20049;-67
2023/11/28 00:43:03;;;;;;;18.80;2.08;;;20.30;43.30;;;;;;4995148;28;20134;-66
2023/11/28 00:45:30;;;;;;;14.90;1.98;;;20.10;43.60;;;;;;4995442;28;20075;-65
2023/11/28 00:47:57;;;;;;;14.30;2.38;;;20.10;43.90;;;;;;4995677;28;20498;-64
2023/11/28 00:50:23;;;;;;;15.10;2.00;;;20.00;44.30;;;;;;4998497;28;20056;-65
2023/11/28 00:52:50;;;;;;;11.13;1.88;;;19.90;44.30;;;;;;4996389;28;20582;-65
2023/11/28 00:55:17;;;;;;;13.65;2.38;;;19.90;44.40;;;;;;4995209;28;20059;-65
2023/11/28 00:57:47;;;;;;;20.60;2.83;;;19.90;44.50;;;;;;4996111;28;20060;-66
2023/11/28 01:00:14;;;;;;;9.02;2.42;;;19.80;44.70;;;;;;4996612;28;20048;-64
2023/11/28 01:02:41;;;;;;;13.57;4.55;;;19.80;45.20;;;;;;4995605;28;20459;-66
2023/11/28 01:05:08;;;;;;;15.57;5.50;;;19.70;45.20;;;;;;4995163;28;20091;-64
2023/11/28 01:07:35;;;;;;;20.13;4.28;;;19.70;45.20;;;;;;4995995;28;20586;-65
2023/11/28 01:10:02;;;;;;;13.68;4.10;;;19.60;45.20;;;;;;4995198;28;20051;-65
2023/11/28 01:12:29;;;;;;;12.95;3.33;;;19.50;45.90;;;;;;4993182;28;20051;-66
2023/11/28 01:14:55;;;;;;;18.48;3.05;;;19.50;45.60;;;;;;4997458;28;20482;-66
2023/11/28 01:17:22;;;;;;;17.40;3.35;;;19.40;46.00;;;;;;4996426;28;20080;-64
2023/11/28 01:19:48;;;;;;;18.60;3.00;;;19.40;45.70;;;;;;4994963;28;20044;-66
2023/11/28 01:22:15;;;;;;;16.60;2.55;;;19.30;45.90;;;;;;4998140;28;20510;-63
2023/11/28 01:24:42;;;;;;;14.88;2.45;;;19.20;46.10;;;;;;4996460;28;20451;-69
2023/11/28 01:27:11;;;;;;;15.75;2.85;;;19.20;46.30;;;;;;4995947;28;20487;-66
2023/11/28 01:29:38;;;;;;;14.25;2.90;;;19.10;46.20;;;;;;4996096;28;20056;-67
2023/11/28 01:32:05;;;;;;;23.38;3.20;;;19.00;46.50;;;;;;4994531;28;20054;-65
2023/11/28 01:34:31;;;;;;;24.65;2.90;;;19.00;46.60;;;;;;4998196;28;20183;-63
2023/11/28 01:36:58;;;;;;;15.40;2.67;;;19.00;46.70;;;;;;4996904;28;20096;-66
2023/11/28 01:39:24;;;;;;;22.75;3.80;;;18.90;46.90;;;;;;4995163;28;20108;-65
2023/11/28 01:41:51;;;;;;;24.77;3.95;;;18.80;47.30;;;;;;4997480;28;20052;-67
2023/11/28 01:44:18;;;;;;;16.33;2.75;;;18.80;47.20;;;;;;4995180;28;20065;-66
2023/11/28 01:46:44;;;;;;;20.13;3.30;;;18.80;47.30;;;;;;4996790;28;20111;-66
2023/11/28 01:49:11;;;;;;;15.27;2.78;;;18.80;47.00;;;;;;4997636;28;20097;-66
2023/11/28 01:51:39;;;;;;;20.83;3.35;;;18.70;47.00;;;;;;4996856;28;20414;-64
2023/11/28 01:54:07;;;;;;;13.82;2.53;;;18.70;47.50;;;;;;4997427;28;20054;-65
2023/11/28 01:56:36;;;;;;;9.13;2.30;;;18.70;47.40;;;;;;4992942;28;20056;-64
2023/11/28 01:59:06;;;;;;;13.98;3.08;;;18.60;47.10;;;;;;4994160;28;20049;-64
2023/11/28 02:01:34;;;;;;;27.02;3.22;;;18.60;47.40;;;;;;4995965;28;20421;-66
2023/11/28 02:04:00;;;;;;;19.15;2.75;;;18.50;47.60;;;;;;4991874;28;20527;-68
2023/11/28 02:06:27;;;;;;;21.85;2.60;;;18.50;47.90;;;;;;4994763;28;20093;-68
2023/11/28 02:08:53;;;;;;;19.55;2.90;;;18.40;48.00;;;;;;4994422;28;20049;-66
2023/11/28 02:11:22;;;;;;;22.15;3.30;;;18.40;48.40;;;;;;5001704;28;20041;-65
2023/11/28 02:13:48;;;;;;;24.40;3.47;;;18.30;48.70;;;;;;4995685;28;20051;-63
2023/11/28 02:16:16;;;;;;;28.80;4.00;;;18.20;49.50;;;;;;5002805;28;20042;-63
2023/11/28 02:18:43;;;;;;;25.67;3.50;;;18.10;49.60;;;;;;4995726;28;20150;-62
2023/11/28 02:21:11;;;;;;;26.58;4.32;;;18.00;50.00;;;;;;4992580;28;20051;-63
2023/11/28 02:23:38;;;;;;;27.52;3.65;;;17.90;50.40;;;;;;4993772;28;20086;-66
2023/11/28 02:26:23;;;;;;;24.55;3.75;;;17.80;50.70;;;;;;5003746;28;20043;-67
2023/11/28 02:28:50;;;;;;;30.52;4.63;;;17.80;51.00;;;;;;4992569;28;20517;-66
2023/11/28 02:31:18;;;;;;;32.88;5.18;;;17.70;51.50;;;;;;4995560;28;20105;-66
2023/11/28 02:33:45;;;;;;;37.63;5.47;;;17.70;51.50;;;;;;4995629;28;20109;-66
2023/11/28 02:36:12;;;;;;;34.47;6.47;;;17.60;51.50;;;;;;4994653;28;20508;-62
2023/11/28 02:38:38;;;;;;;32.42;5.47;;;17.50;51.30;;;;;;4991332;28;20055;-64
2023/11/28 02:41:05;;;;;;;30.02;4.93;;;17.40;51.70;;;;;;4997372;28;20054;-64
2023/11/28 02:43:31;;;;;;;29.23;5.60;;;17.40;52.00;;;;;;4994456;28;20560;-68
2023/11/28 02:45:58;;;;;;;46.50;6.50;;;17.40;52.20;;;;;;4990185;28;20113;-66
2023/11/28 02:48:25;;;;;;;34.28;6.03;;;17.40;52.00;;;;;;4993250;28;20133;-67
2023/11/28 02:50:51;;;;;;;37.47;6.50;;;17.40;51.80;;;;;;4998657;28;20062;-67
2023/11/28 02:53:20;;;;;;;41.17;7.80;;;17.60;52.80;;;;;;4997222;28;20519;-62
2023/11/28 02:55:47;;;;;;;38.85;9.00;;;18.20;52.50;;;;;;4995201;28;20131;-63
2023/11/28 02:58:14;;;;;;;42.05;7.20;;;18.70;51.30;;;;;;4994907;28;20430;-63
2023/11/28 03:00:40;;;;;;;42.15;7.78;;;19.10;50.60;;;;;;4996052;28;20071;-63
2023/11/28 03:03:07;;;;;;;36.65;6.63;;;19.30;49.80;;;;;;4992443;28;20045;-63
2023/11/28 03:05:33;;;;;;;47.90;7.60;;;19.50;49.60;;;;;;5002246;28;20487;-62
2023/11/28 03:08:00;;;;;;;44.15;7.32;;;19.60;49.60;;;;;;4995026;28;20044;-63
2023/11/28 03:10:26;;;;;;;44.17;7.88;;;19.80;49.20;;;;;;4993949;28;20074;-63
2023/11/28 03:12:53;;;;;;;42.60;7.57;;;19.70;49.10;;;;;;4996218;28;20047;-62
2023/11/28 03:15:20;;;;;;;46.88;7.63;;;19.20;49.50;;;;;;4992776;28;20075;-62
2023/11/28 03:17:46;;;;;;;57.70;8.55;;;19.30;49.60;;;;;;4992360;28;20534;-65
2023/11/28 03:20:13;;;;;;;41.72;8.85;;;19.50;49.00;;;;;;4993902;28;20078;-62
2023/11/28 03:22:40;;;;;;;45.00;8.48;;;19.60;49.10;;;;;;4995882;28;20040;-61
2023/11/28 03:25:14;;;;;;;54.83;8.15;;;19.60;48.90;;;;;;4995805;28;20592;-63
2023/11/28 03:27:40;;;;;;;50.13;8.00;;;19.50;48.40;;;;;;4995863;28;20043;-63
2023/11/28 03:30:07;;;;;;;36.75;7.55;;;19.50;48.50;;;;;;4996877;28;20087;-64
2023/11/28 03:32:34;;;;;;;46.50;7.60;;;19.40;49.40;;;;;;4998053;28;20075;-62
2023/11/28 03:35:00;;;;;;;51.30;8.52;;;19.40;49.60;;;;;;4993501;28;20042;-64
2023/11/28 03:37:27;;;;;;;55.03;8.23;;;19.30;50.00;;;;;;4993592;28;20048;-62
2023/11/28 03:39:53;;;;;;;54.20;8.57;;;19.30;50.30;;;;;;4995916;28;20089;-62
2023/11/28 03:42:20;;;;;;;52.45;8.20;;;19.20;50.10;;;;;;4994728;28;20094;-61
2023/11/28 03:44:47;;;;;;;58.22;8.65;;;19.10;50.60;;;;;;4994321;28;20089;-63
2023/11/28 03:47:14;;;;;;;57.83;8.63;;;19.00;51.60;;;;;;4993087;28;20040;-59
2023/11/28 03:49:40;;;;;;;37.92;7.88;;;18.90;50.90;;;;;;4995834;28;20043;-61
2023/11/28 03:52:07;;;;;;;52.45;9.13;;;18.80;51.20;;;;;;4994681;28;20046;-62
2023/11/28 03:54:34;;;;;;;42.55;9.23;;;18.80;51.00;;;;;;4994204;28;20179;-62
2023/11/28 03:57:00;;;;;;;46.58;8.90;;;18.70;51.90;;;;;;4991774;28;20216;-61
2023/11/28 03:59:27;;;;;;;52.47;9.93;;;18.60;52.00;;;;;;4992379;28;20450;-62
2023/11/28 04:01:54;;;;;;;64.10;10.43;;;18.50;51.90;;;;;;4997255;28;20189;-62
2023/11/28 04:04:20;;;;;;;58.20;10.77;;;18.30;52.30;;;;;;5001104;28;20065;-61
2023/11/28 04:06:47;;;;;;;49.67;10.52;;;18.10;53.50;;;;;;4996070;28;20176;-62
2023/11/28 04:09:13;;;;;;;95.57;11.90;;;18.00;53.40;;;;;;4998507;28;20531;-62
2023/11/28 04:11:40;;;;;;;56.05;10.68;;;18.00;53.00;;;;;;4999563;28;20046;-62
2023/11/28 04:14:09;;;;;;;72.45;12.00;;;17.90;53.40;;;;;;4997823;28;20052;-63
2023/11/28 04:16:36;;;;;;;72.43;12.20;;;17.80;53.90;;;;;;4999719;28;20058;-63
2023/11/28 04:19:02;;;;;;;64.45;11.73;;;17.80;53.70;;;;;;4999487;28;20062;-63
2023/11/28 04:21:29;;;;;;;66.30;12.32;;;17.70;53.50;;;;;;4998869;28;20057;-63
2023/11/28 04:23:55;;;;;;;65.15;12.88;;;17.60;54.10;;;;;;4995268;28;20094;-62
2023/11/28 04:26:22;;;;;;;65.03;12.35;;;17.60;54.00;;;;;;4998321;28;20046;-56
2023/11/28 04:28:49;;;;;;;66.30;12.75;;;17.40;54.10;;;;;;4998335;28;20054;-62
2023/11/28 04:31:20;;;;;;;72.85;13.43;;;17.40;54.90;;;;;;4996291;28;20544;-62
2023/11/28 04:33:47;;;;;;;81.10;13.75;;;17.30;55.50;;;;;;5005868;28;20424;-62
2023/11/28 04:36:15;;;;;;;68.53;13.90;;;17.30;54.80;;;;;;4998125;28;20050;-63
2023/11/28 04:38:42;;;;;;;69.43;13.57;;;17.30;55.50;;;;;;5000448;28;20059;-62
2023/11/28 04:41:12;;;;;;;83.22;14.05;;;17.30;55.60;;;;;;4997788;28;20067;-62
2023/11/28 04:43:38;;;;;;;102.38;15.70;;;17.20;56.20;;;;;;4996893;28;20046;-60
2023/11/28 04:46:05;;;;;;;80.18;14.23;;;17.10;56.00;;;;;;4995068;28;20500;-63
2023/11/28 04:48:32;;;;;;;62.30;13.25;;;17.00;56.20;;;;;;4997054;28;20108;-62
2023/11/28 04:50:58;;;;;;;73.85;15.30;;;16.90;56.60;;;;;;4998908;28;20043;-61
2023/11/28 04:53:25;;;;;;;71.95;14.63;;;16.80;56.30;;;;;;4999944;28;20066;-63
2023/11/28 04:55:51;;;;;;;71.78;15.02;;;16.80;56.20;;;;;;4996694;28;20181;-62
2023/11/28 04:58:18;;;;;;;66.50;16.27;;;16.80;56.30;;;;;;4999122;28;20493;-61
2023/11/28 05:00:45;;;;;;;71.43;16.17;;;16.80;56.40;;;;;;5005861;28;20471;-62
2023/11/28 05:03:11;;;;;;;82.72;17.42;;;16.70;56.90;;;;;;4994797;28;20417;-64
2023/11/28 05:05:38;;;;;;;87.20;18.77;;;16.60;56.30;;;;;;4997440;28;20068;-60
2023/11/28 05:08:05;;;;;;;76.60;17.25;;;16.60;56.60;;;;;;4997194;28;20047;-62
2023/11/28 05:10:32;;;;;;;60.10;16.67;;;16.60;57.00;;;;;;4995289;28;20091;-62
2023/11/28 05:12:58;;;;;;;54.78;15.07;;;16.50;57.20;;;;;;5000672;28;20120;-60
2023/11/28 05:15:24;;;;;;;61.42;16.95;;;16.30;57.40;;;;;;5000661;28;20056;-60
2023/11/28 05:17:51;;;;;;;81.75;18.88;;;16.30;58.00;;;;;;4997704;28;20553;-60
2023/11/28 05:20:18;;;;;;;92.63;18.73;;;16.20;58.10;;;;;;4998151;28;20500;-61
2023/11/28 05:22:45;;;;;;;82.05;18.38;;;16.20;58.10;;;;;;4997432;28;20052;-63
2023/11/28 05:25:12;;;;;;;97.43;18.63;;;16.10;57.90;;;;;;5001373;28;20116;-60
2023/11/28 05:27:39;;;;;;;72.65;16.00;;;16.00;58.70;;;;;;4997384;28;20134;-60
2023/11/28 05:30:06;;;;;;;83.40;17.52;;;16.00;58.90;;;;;;4996905;28;20141;-60
2023/11/28 05:32:33;;;;;;;70.75;17.60;;;15.90;58.80;;;;;;4997509;28;20514;-61
2023/11/28 05:34:59;;;;;;;77.00;19.77;;;15.90;58.50;;;;;;5002283;28;20061;-62
2023/11/28 05:37:26;;;;;;;95.90;19.60;;;15.90;59.00;;;;;;4999127;28;20103;-58
2023/11/28 05:39:52;;;;;;;76.88;20.05;;;15.80;58.70;;;;;;5000470;28;20063;-60
2023/11/28 05:42:19;;;;;;;87.50;19.83;;;15.80;59.60;;;;;;4998939;28;20054;-61
2023/11/28 05:44:45;;;;;;;65.13;16.83;;;15.70;59.90;;;;;;4996424;28;20076;-61
2023/11/28 05:47:12;;;;;;;79.38;18.00;;;15.70;59.30;;;;;;4995147;28;20049;-58
2023/11/28 05:49:39;;;;;;;76.97;18.33;;;15.60;59.20;;;;;;4996685;28;20140;-61
2023/11/28 05:52:06;;;;;;;68.32;18.33;;;15.60;59.20;;;;;;4997948;28;20054;-60
2023/11/28 05:54:32;;;;;;;78.88;17.92;;;15.60;58.90;;;;;;4993290;28;20109;-60
2023/11/28 05:56:59;;;;;;;78.43;17.92;;;15.60;59.10;;;;;;4996591;28;20635;-60
2023/11/28 05:59:25;;;;;;;71.05;17.30;;;15.60;59.40;;;;;;4997148;28;20149;-60
2023/11/28 06:02:00;;;;;;;77.43;19.98;;;15.60;59.80;;;;;;4996406;28;20056;-61
2023/11/28 06:04:29;;;;;;;66.82;17.10;;;15.60;59.20;;;;;;4996369;28;20125;-59
2023/11/28 06:06:57;;;;;;;71.57;17.88;;;15.60;58.70;;;;;;4996918;28;20135;-59
2023/11/28 06:09:24;;;;;;;57.63;16.75;;;15.60;58.90;;;;;;4994071;28;20571;-62
2023/11/28 06:11:52;;;;;;;57.83;17.15;;;15.50;59.40;;;;;;4995900;28;20064;-63
2023/11/28 06:14:21;;;;;;;67.63;17.15;;;15.50;59.90;;;;;;4993065;28;20045;-61
2023/11/28 06:16:48;;;;;;;54.88;17.00;;;15.50;59.50;;;;;;4994096;28;20056;-61
2023/11/28 06:19:17;;;;;;;55.40;17.33;;;15.50;59.20;;;;;;4996558;28;20130;-62
2023/11/28 06:21:47;;;;;;;68.10;21.92;;;15.50;59.30;;;;;;4995068;28;20056;-61
2023/11/28 06:24:14;;;;;;;62.83;18.98;;;15.40;59.30;;;;;;4997084;28;20077;-62
2023/11/28 06:26:41;;;;;;;82.45;18.67;;;15.40;59.40;;;;;;4993487;28;20690;-61
2023/11/28 06:29:07;;;;;;;54.97;16.27;;;15.40;59.30;;;;;;4994786;28;20056;-62
2023/11/28 06:31:34;;;;;;;54.05;17.80;;;15.40;59.20;;;;;;4997383;28;20051;-60
2023/11/28 06:34:00;;;;;;;66.40;18.10;;;15.40;59.00;;;;;;4996254;28;20082;-63
2023/11/28 06:36:27;;;;;;;67.10;16.17;;;15.40;59.20;;;;;;4999145;28;20054;-61
2023/11/28 06:38:55;;;;;;;46.08;17.23;;;15.40;59.00;;;;;;4997436;28;20129;-62
2023/11/28 06:41:21;;;;;;;53.63;16.63;;;15.30;59.50;;;;;;4994672;28;20055;-62
2023/11/28 06:43:49;;;;;;;48.20;16.65;;;15.40;59.00;;;;;;4994061;28;20463;-63
2023/11/28 06:46:19;;;;;;;47.45;18.30;;;15.30;59.40;;;;;;4993896;28;20063;-62
2023/11/28 06:48:46;;;;;;;55.55;18.02;;;15.30;59.20;;;;;;4994778;28;20049;-61
2023/11/28 06:51:13;;;;;;;66.70;17.35;;;15.30;59.40;;;;;;4992739;28;20057;-60
2023/11/28 06:53:40;;;;;;;53.33;15.10;;;15.30;58.90;;;;;;4994528;28;20053;-60
2023/11/28 06:56:07;;;;;;;51.33;16.27;;;15.30;57.90;;;;;;4992345;28;20498;-60
2023/11/28 06:58:34;;;;;;;49.25;16.55;;;15.40;57.60;;;;;;4994508;28;20500;-58
2023/11/28 07:01:00;;;;;;;36.70;14.77;;;15.40;58.00;;;;;;4991475;28;20418;-61
2023/11/28 07:03:31;;;;;;;41.25;13.70;;;15.30;58.40;;;;;;4994348;28;20096;-61
2023/11/28 07:05:59;;;;;;;53.42;13.02;;;15.30;56.90;;;;;;4994214;28;20068;-60
2023/11/28 07:08:25;;;;;;;39.67;12.57;;;15.30;57.40;;;;;;4992623;28;20051;-59
2023/11/28 07:10:52;;;;;;;37.30;12.43;;;15.30;56.60;;;;;;4993611;28;20077;-59
2023/11/28 07:13:19;;;;;;;26.05;10.48;;;15.30;55.50;;;;;;4992556;28;20053;-59
2023/11/28 07:15:46;;;;;;;32.85;11.23;;;15.30;56.30;;;;;;4993997;28;20051;-60
2023/11/28 07:18:19;;;;;;;26.80;10.45;;;15.30;55.60;;;;;;4994804;28;20562;-61
2023/11/28 07:20:48;;;;;;;30.13;9.75;;;15.30;55.30;;;;;;4991400;28;20077;-60
2023/11/28 07:23:14;;;;;;;26.27;9.20;;;15.30;56.00;;;;;;4994358;28;20140;-59
2023/11/28 07:25:41;;;;;;;27.38;9.13;;;15.30;55.20;;;;;;4993467;28;20099;-60
2023/11/28 07:28:07;;;;;;;23.33;8.15;;;15.30;54.70;;;;;;4993914;28;20107;-60
2023/11/28 07:30:34;;;;;;;19.52;8.48;;;15.30;54.50;;;;;;4993565;28;20430;-62
2023/11/28 07:33:00;;;;;;;18.08;6.72;;;15.20;54.00;;;;;;4992687;28;20122;-61
2023/11/28 07:35:27;;;;;;;18.85;6.18;;;15.30;53.60;;;;;;4997494;28;20065;-61
2023/11/28 07:37:53;;;;;;;13.13;5.70;;;15.30;52.20;;;;;;4993243;28;20084;-60
2023/11/28 07:40:21;;;;;;;15.63;6.43;;;15.30;52.30;;;;;;4992180;28;20062;-59
2023/11/28 07:42:47;;;;;;;16.63;6.20;;;15.40;53.00;;;;;;4995828;28;20074;-60
2023/11/28 07:45:14;;;;;;;12.82;5.88;;;15.30;53.30;;;;;;4993464;28;20070;-63
2023/11/28 07:47:41;;;;;;;11.52;5.30;;;15.40;53.60;;;;;;4991806;28;20448;-60
2023/11/28 07:50:08;;;;;;;16.27;4.65;;;15.30;52.70;;;;;;4995942;28;20396;-60
2023/11/28 07:52:35;;;;;;;16.27;4.32;;;15.30;51.70;;;;;;4990826;28;20133;-59
2023/11/28 07:55:01;;;;;;;9.80;3.80;;;15.30;49.90;;;;;;4994107;28;20372;-60
2023/11/28 07:57:27;;;;;;;10.10;3.75;;;15.40;49.40;;;;;;4993970;28;20154;-60
2023/11/28 07:59:54;;;;;;;9.57;3.88;;;15.40;49.00;;;;;;5000028;28;20069;-61
2023/11/28 08:02:20;;;;;;;9.52;3.22;;;15.40;48.20;;;;;;4993622;28;20417;-60
2023/11/28 08:04:47;;;;;;;5.57;3.20;;;15.50;48.00;;;;;;4992156;28;20551;-60
2023/11/28 08:07:13;;;;;;;13.40;3.50;;;15.50;48.30;;;;;;4992734;28;20052;-60
2023/11/28 08:09:40;;;;;;;11.57;3.80;;;15.50;48.60;;;;;;4995085;28;20064;-61
2023/11/28 08:12:06;;;;;;;11.40;3.47;;;15.50;48.30;;;;;;4993194;28;20066;-61
2023/11/28 08:14:33;;;;;;;8.13;3.33;;;15.50;47.90;;;;;;4992990;28;20468;-60
2023/11/28 08:16:59;;;;;;;12.27;3.15;;;15.50;47.80;;;;;;4994257;28;20065;-60
2023/11/28 08:19:27;;;;;;;6.40;2.88;;;15.60;47.50;;;;;;4992037;28;20074;-61
2023/11/28 08:21:53;;;;;;;6.00;1.95;;;15.60;47.50;;;;;;4993444;28;20069;-60
2023/11/28 08:24:20;;;;;;;4.45;1.60;;;15.60;47.40;;;;;;4993699;28;20118;-62
2023/11/28 08:26:46;;;;;;;6.35;1.40;;;15.70;46.90;;;;;;4994340;28;20090;-61
2023/11/28 08:29:13;;;;;;;2.60;1.27;;;15.60;46.90;;;;;;4993122;28;20127;-60
2023/11/28 08:31:39;;;;;;;6.38;1.50;;;15.70;47.10;;;;;;4996924;28;20051;-61
2023/11/28 08:34:06;;;;;;;1.65;0.90;;;15.70;47.10;;;;;;4991618;28;20066;-58
2023/11/28 08:36:32;;;;;;;2.58;1.00;;;15.70;46.90;;;;;;4994732;28;20082;-61
2023/11/28 08:38:59;;;;;;;2.55;1.25;;;15.70;47.20;;;;;;4994730;28;20061;-64
2023/11/28 08:41:26;;;;;;;2.17;1.10;;;15.70;47.10;;;;;;4995429;28;20058;-61
2023/11/28 08:43:52;;;;;;;9.20;1.38;;;15.70;47.30;;;;;;4997525;28;20059;-62
2023/11/28 08:46:20;;;;;;;1.80;1.40;;;15.70;47.20;;;;;;4992282;28;20123;-60
2023/11/28 08:48:46;;;;;;;5.45;1.50;;;15.70;47.20;;;;;;4993761;28;20050;-62
2023/11/28 08:51:13;;;;;;;2.92;1.48;;;15.80;47.30;;;;;;4995180;28;20052;-60
2023/11/28 08:53:39;;;;;;;4.03;1.70;;;15.80;47.20;;;;;;4995645;28;20046;-60
2023/11/28 08:56:12;;;;;;;1.80;1.50;;;15.80;47.20;;;;;;4999447;28;20057;-61
2023/11/28 08:58:39;;;;;;;5.47;1.70;;;15.80;47.10;;;;;;4995806;28;20062;-60
2023/11/28 09:01:06;;;;;;;10.20;1.77;;;15.70;47.30;;;;;;5002025;28;20053;-60
2023/11/28 09:03:33;;;;;;;2.92;1.48;;;15.80;47.50;;;;;;4996102;28;20141;-61
2023/11/28 09:05:59;;;;;;;4.38;1.23;;;15.80;47.30;;;;;;4994218;28;20072;-62
2023/11/28 09:08:26;;;;;;;1.30;1.00;;;15.80;47.40;;;;;;4993448;28;20095;-60
2023/11/28 09:10:52;;;;;;;3.85;1.40;;;15.80;47.50;;;;;;4993542;28;20128;-62
2023/11/28 09:13:20;;;;;;;2.65;1.30;;;15.70;47.60;;;;;;4994072;28;20118;-60
2023/11/28 09:15:46;;;;;;;7.55;1.25;;;15.80;47.30;;;;;;4997460;28;20064;-60
2023/11/28 09:18:13;;;;;;;3.70;1.38;;;15.80;47.50;;;;;;4992618;28;20065;-60
2023/11/28 09:20:39;;;;;;;4.10;1.40;;;15.80;47.30;;;;;;4992107;28;20153;-61
2023/11/28 09:23:05;;;;;;;4.57;1.48;;;15.80;47.50;;;;;;4993513;28;20091;-62
2023/11/28 09:25:32;;;;;;;2.88;1.42;;;15.80;47.50;;;;;;4995255;28;20094;-63
2023/11/28 09:27:58;;;;;;;9.07;1.48;;;15.80;47.30;;;;;;4998065;28;20512;-62
2023/11/28 09:30:25;;;;;;;2.75;1.17;;;15.80;47.30;;;;;;4995913;28;20058;-60
2023/11/28 09:32:51;;;;;;;2.95;0.90;;;15.80;47.10;;;;;;4998369;28;20062;-60
2023/11/28 09:35:18;;;;;;;4.93;1.35;;;15.80;47.00;;;;;;4995676;28;20136;-59
2023/11/28 09:37:44;;;;;;;4.07;1.35;;;15.70;46.80;;;;;;4998350;28;20061;-62
2023/11/28 09:40:11;;;;;;;3.72;1.27;;;15.70;46.80;;;;;;4994602;28;20062;-65
2023/11/28 09:42:40;;;;;;;3.28;1.30;;;15.70;47.70;;;;;;4988924;28;20061;-59
2023/11/28 09:45:07;;;;;;;4.18;1.15;;;15.70;47.00;;;;;;4995576;28;20074;-60
2023/11/28 09:47:37;;;;;;;2.78;1.20;;;15.70;46.90;;;;;;4994885;28;20056;-60
2023/11/28 09:50:05;;;;;;;4.22;0.93;;;15.60;47.30;;;;;;4996019;28;20052;-61
2023/11/28 09:52:36;;;;;;;1.15;0.90;;;15.60;47.60;;;;;;4994405;28;20051;-61
2023/11/28 09:55:03;;;;;;;2.85;1.27;;;15.50;47.40;;;;;;4997050;28;20137;-60
2023/11/28 09:57:34;;;;;;;6.15;1.35;;;15.50;47.70;;;;;;4996195;28;20056;-60
2023/11/28 10:00:04;;;;;;;1.95;1.15;;;15.50;47.30;;;;;;4994039;28;20051;-61
2023/11/28 10:02:32;;;;;;;1.88;1.10;;;15.50;47.30;;;;;;4995440;28;20059;-60
2023/11/28 10:04:58;;;;;;;4.53;1.17;;;15.50;47.20;;;;;;4994697;28;20076;-60
2023/11/28 10:07:33;;;;;;;3.28;1.08;;;15.50;47.20;;;;;;4995235;28;20846;-60
2023/11/28 10:10:08;;;;;;;2.20;1.08;;;15.50;47.70;;;;;;4995621;28;20073;-61
2023/11/28 10:12:36;;;;;;;2.88;1.00;;;15.50;48.50;;;;;;4994354;28;20055;-61
2023/11/28 10:15:07;;;;;;;3.80;1.25;;;15.40;48.10;;;;;;4994547;28;20057;-62
2023/11/28 10:17:37;;;;;;;1.80;1.00;;;15.50;47.50;;;;;;4998074;28;20081;-61
2023/11/28 10:20:08;;;;;;;4.10;1.05;;;15.40;47.00;;;;;;4994665;28;20053;-60
2023/11/28 10:22:35;;;;;;;4.13;1.05;;;15.50;47.40;;;;;;5002713;28;20074;-61
2023/11/28 10:25:11;;;;;;;1.30;0.93;;;15.50;47.20;;;;;;4998425;28;20127;-61
2023/11/28 10:27:41;;;;;;;6.38;1.15;;;15.50;47.30;;;;;;4995524;28;20436;-60
2023/11/28 10:30:12;;;;;;;2.55;0.80;;;15.50;47.20;;;;;;4994069;28;20060;-60
2023/11/28 10:32:39;;;;;;;3.53;1.02;;;15.50;47.40;;;;;;4997907;28;20067;-62
2023/11/28 10:35:06;;;;;;;2.50;1.00;;;15.50;47.30;;;;;;4995017;28;20483;-64
2023/11/28 10:37:36;;;;;;;2.30;0.90;;;15.50;47.80;;;;;;4994354;28;20057;-60
2023/11/28 10:40:18;;;;;;;1.60;0.98;;;15.40;47.30;;;;;;4993645;28;20058;-61
2023/11/28 10:42:45;;;;;;;5.13;1.20;;;15.40;47.30;;;;;;4994633;28;20111;-61
2023/11/28 10:45:16;;;;;;;9.95;1.23;;;15.40;47.30;;;;;;4993944;28;20081;-59
2023/11/28 10:47:43;;;;;;;4.88;1.10;;;15.40;47.20;;;;;;4995932;28;20049;-61
2023/11/28 10:50:11;;;;;;;2.55;0.90;;;15.40;47.70;;;;;;4994034;28;20160;-61
2023/11/28 10:52:39;;;;;;;5.13;1.02;;;15.40;48.00;;;;;;4993287;28;20100;-60
2023/11/28 10:55:09;;;;;;;1.75;0.80;;;15.40;48.20;;;;;;4995497;28;20085;-60
2023/11/28 10:57:57;;;;;;;1.67;0.90;;;15.30;48.30;;;;;;4997368;28;20056;-61
2023/11/28 11:00:26;;;;;;;5.85;1.00;;;15.30;48.30;;;;;;4994967;28;20075;-62
2023/11/28 11:02:57;;;;;;;4.22;1.00;;;15.30;49.20;;;;;;4994341;28;20055;-61
2023/11/28 11:05:26;;;;;;;1.58;0.95;;;15.30;49.60;;;;;;4993179;28;20157;-62
2023/11/28 11:07:53;;;;;;;1.77;0.70;;;15.20;49.30;;;;;;4996752;28;20059;-62
2023/11/28 11:10:19;;;;;;;2.92;1.00;;;15.20;48.90;;;;;;5000448;28;20049;-61
2023/11/28 11:12:49;;;;;;;3.22;0.90;;;15.20;49.20;;;;;;4992816;28;20067;-60
2023/11/28 11:15:22;;;;;;;2.75;0.80;;;15.20;49.30;;;;;;4994691;28;20571;-61
2023/11/28 11:18:27;;;;;;;2.47;0.90;;;15.20;48.80;;;;;;4997676;28;20083;-60
2023/11/28 11:21:00;;;;;;;5.10;1.20;;;15.20;49.00;;;;;;4992494;28;20612;-61
2023/11/28 11:23:30;;;;;;;2.53;1.10;;;15.10;49.30;;;;;;4997347;28;20643;-60
2023/11/28 11:25:57;;;;;;;5.78;1.13;;;15.10;50.40;;;;;;4995690;28;20099;-60
2023/11/28 11:28:23;;;;;;;3.35;1.13;;;15.00;49.80;;;;;;4994070;28;20131;-61
2023/11/28 11:30:50;;;;;;;3.67;1.25;;;15.00;49.90;;;;;;4998490;28;20055;-61
2023/11/28 11:33:24;;;;;;;3.20;1.30;;;15.00;50.00;;;;;;4993401;28;20069;-61
2023/11/28 11:36:14;;;;;;;7.07;1.15;;;15.00;49.80;;;;;;4993996;28;20060;-60
2023/11/28 11:38:41;;;;;;;5.93;0.98;;;14.90;49.60;;;;;;4998448;28;20058;-60
2023/11/28 11:41:11;;;;;;;3.78;1.20;;;14.80;50.70;;;;;;5001497;28;20147;-60
2023/11/28 11:43:41;;;;;;;6.22;1.13;;;14.70;50.90;;;;;;5000444;28;20070;-60
2023/11/28 11:46:21;;;;;;;5.85;1.17;;;14.80;50.40;;;;;;5004259;28;20107;-59
2023/11/28 11:48:48;;;;;;;6.65;1.40;;;14.80;50.20;;;;;;5003216;28;20066;-59
2023/11/28 11:51:15;;;;;;;2.42;1.20;;;14.70;50.80;;;;;;5000906;28;20156;-61
2023/11/28 11:53:44;;;;;;;8.07;1.20;;;14.80;51.20;;;;;;5003237;28;20499;-62
2023/11/28 11:56:11;;;;;;;5.90;1.38;;;14.70;51.00;;;;;;5003895;28;20070;-61
2023/11/28 11:58:38;;;;;;;7.35;1.50;;;14.70;51.60;;;;;;5003247;28;20072;-60
2023/11/28 12:01:04;;;;;;;3.25;1.48;;;14.60;52.00;;;;;;5001006;28;20069;-60
2023/11/28 12:03:31;;;;;;;5.13;1.50;;;14.60;52.30;;;;;;5004213;28;20119;-61
2023/11/28 12:05:58;;;;;;;5.85;1.73;;;14.50;52.40;;;;;;5000001;28;20078;-62
2023/11/28 12:08:26;;;;;;;6.82;1.65;;;14.40;52.70;;;;;;5000913;28;20086;-60
2023/11/28 12:11:09;;;;;;;4.43;1.42;;;14.40;53.00;;;;;;5003170;28;20081;-60
2023/11/28 12:13:37;;;;;;;5.20;1.60;;;14.40;53.20;;;;;;5002279;28;21137;-60
2023/11/28 12:16:04;;;;;;;7.80;1.90;;;14.40;53.30;;;;;;5001966;28;20064;-60
2023/11/28 12:18:31;;;;;;;4.82;1.30;;;14.40;53.40;;;;;;4999299;28;20179;-60
2023/11/28 12:20:58;;;;;;;7.50;1.42;;;14.40;53.00;;;;;;4996277;28;20067;-61
2023/11/28 12:23:24;;;;;;;3.83;0.90;;;14.40;52.50;;;;;;5001833;28;20115;-62
2023/11/28 12:25:52;;;;;;;3.72;1.10;;;14.40;51.20;;;;;;5003327;28;20530;-60
2023/11/28 12:28:19;;;;;;;1.80;1.10;;;14.50;50.30;;;;;;5001801;28;20068;-60
2023/11/28 12:30:48;;;;;;;3.63;1.00;;;14.50;50.00;;;;;;5004106;28;20147;-61
2023/11/28 12:33:14;;;;;;;4.53;0.95;;;14.50;50.30;;;;;;5001732;28;20072;-60
2023/11/28 12:35:40;;;;;;;6.28;0.90;;;14.50;50.20;;;;;;5003326;28;20421;-60
2023/11/28 12:38:13;;;;;;;3.10;1.02;;;14.50;49.60;;;;;;5006521;28;20085;-62
2023/11/28 12:40:39;;;;;;;8.07;1.30;;;14.50;49.40;;;;;;5004138;28;20217;-61